Coastal Messenger — CFL9726 — position and weather

sailwx.info

Track history (hours):
 
Tides and Currents Weather Stations Pressure Air Temp Water Temp Dewpoint Dewpoint Depression Visibility Wind Speed Wind Dir Waves Ship Positions

Coastal Messenger

Last reported at 2014-Sep-10 19:17 UTC. Time now 2014-Sep-19 09:53 UTC.
Position N 50°44' W 127°22'.
Warning: this ship's position is 8 days out of date.

Length 16 m.

Type: Pleasure craft. MMSI: 316016342.

Date/timePositionNaut miles runAvg speedWind from/ knotsBaromVisibWave heightAir tempDewpointWater temp
2014-Sep-10 19:17N 50°44' W 127°22'3 4.4
2014-Sep-10 18:30N 50°43' W 127°28'5 2.8
2014-Sep-10 16:33N 50°48' W 127°31'2 1.7
2014-Sep-10 15:29N 50°50' W 127°32'0 0.0
2014-Sep-10 14:29N 50°50' W 127°32'0 0.0
2014-Sep-10 13:29N 50°50' W 127°32'0 0.0
2014-Sep-10 12:29N 50°50' W 127°32'0 0.0
2014-Sep-10 11:29N 50°50' W 127°32'0 0.0
2014-Sep-10 10:29N 50°50' W 127°32'0 0.0
2014-Sep-10 09:29N 50°50' W 127°32'0 0.0
2014-Sep-10 08:29N 50°50' W 127°32'0 0.0
2014-Sep-10 07:17N 50°50' W 127°32'0 0.0
2014-Sep-10 06:29N 50°50' W 127°32'0 0.0
2014-Sep-10 05:23N 50°50' W 127°32'0 0.0
2014-Sep-10 04:29N 50°50' W 127°32'0 0.0
2014-Sep-10 03:29N 50°50' W 127°32'0 0.0
2014-Sep-10 02:29N 50°50' W 127°32'0 0.0
2014-Sep-10 01:29N 50°50' W 127°32'0 0.0
2014-Sep-10 00:29N 50°50' W 127°32'0 0.0
2014-Sep-09 23:29N 50°50' W 127°32'0 0.0
2014-Sep-09 22:29N 50°50' W 127°32'0 0.0
2014-Sep-09 21:29N 50°50' W 127°32'0 0.0
2014-Sep-09 20:23N 50°50' W 127°32'0 0.0
2014-Sep-09 19:29N 50°50' W 127°32'0 0.0
2014-Sep-09 18:29N 50°50' W 127°32'0 0.0
2014-Sep-09 17:29N 50°50' W 127°32'0 0.0
2014-Sep-09 16:23N 50°50' W 127°32'0 0.0
2014-Sep-09 15:29N 50°50' W 127°32'0 0.0
2014-Sep-09 14:29N 50°50' W 127°32'0 0.0
2014-Sep-09 13:29N 50°50' W 127°32'0 0.0
2014-Sep-09 12:29N 50°50' W 127°32'0 0.0
2014-Sep-09 11:23N 50°50' W 127°32'0 0.0
2014-Sep-09 10:23N 50°50' W 127°32'0 0.0
2014-Sep-09 09:29N 50°50' W 127°32'0 0.0
2014-Sep-09 08:29N 50°50' W 127°32'0 0.0
2014-Sep-09 07:29N 50°50' W 127°32'0 0.0
2014-Sep-09 06:29N 50°50' W 127°32'0 0.0
2014-Sep-09 05:29N 50°50' W 127°32'0 0.0
2014-Sep-09 04:29N 50°50' W 127°32'0 0.0
2014-Sep-09 03:29N 50°50' W 127°32'0 0.0
2014-Sep-09 02:23N 50°50' W 127°32'0 0.0
2014-Sep-09 01:29N 50°50' W 127°32'1 1.1
2014-Sep-09 00:33N 50°50' W 127°33'5 5.5
2014-Sep-08 23:33N 50°56' W 127°34'7 7.3
2014-Sep-08 22:33N 51°03' W 127°37'8 7.5
2014-Sep-08 21:29N 51°09' W 127°45'  
2014-Aug-31 20:03N 52°10' W 128°07'  
Track history (hours):
 
Tides and Currents Weather Stations Pressure Air Temp Water Temp Dewpoint Dewpoint Depression Visibility Wind Speed Wind Dir Waves Ship Positions

Coastal Messenger

Last reported at 2014-Sep-10 19:17 UTC. Time now 2014-Sep-19 09:53 UTC.
Position N 50°44' W 127°22'.
Warning: this ship's position is 8 days out of date.

Length 16 m.

Type: Pleasure craft. MMSI: 316016342.

Date/timePositionNaut miles runAvg speedWind from/ knotsBaromVisibWave heightAir tempDewpointWater temp
2014-Sep-10 19:17N 50°44' W 127°22'3 4.4
2014-Sep-10 18:30N 50°43' W 127°28'5 2.8
2014-Sep-10 16:33N 50°48' W 127°31'2 1.7
2014-Sep-10 15:29N 50°50' W 127°32'0 0.0
2014-Sep-10 14:29N 50°50' W 127°32'0 0.0
2014-Sep-10 13:29N 50°50' W 127°32'0 0.0
2014-Sep-10 12:29N 50°50' W 127°32'0 0.0
2014-Sep-10 11:29N 50°50' W 127°32'0 0.0
2014-Sep-10 10:29N 50°50' W 127°32'0 0.0
2014-Sep-10 09:29N 50°50' W 127°32'0 0.0
2014-Sep-10 08:29N 50°50' W 127°32'0 0.0
2014-Sep-10 07:17N 50°50' W 127°32'0 0.0
2014-Sep-10 06:29N 50°50' W 127°32'0 0.0
2014-Sep-10 05:23N 50°50' W 127°32'0 0.0
2014-Sep-10 04:29N 50°50' W 127°32'0 0.0
2014-Sep-10 03:29N 50°50' W 127°32'0 0.0
2014-Sep-10 02:29N 50°50' W 127°32'0 0.0
2014-Sep-10 01:29N 50°50' W 127°32'0 0.0
2014-Sep-10 00:29N 50°50' W 127°32'0 0.0
2014-Sep-09 23:29N 50°50' W 127°32'0 0.0
2014-Sep-09 22:29N 50°50' W 127°32'0 0.0
2014-Sep-09 21:29N 50°50' W 127°32'0 0.0
2014-Sep-09 20:23N 50°50' W 127°32'0 0.0
2014-Sep-09 19:29N 50°50' W 127°32'0 0.0
2014-Sep-09 18:29N 50°50' W 127°32'0 0.0
2014-Sep-09 17:29N 50°50' W 127°32'0 0.0
2014-Sep-09 16:23N 50°50' W 127°32'0 0.0
2014-Sep-09 15:29N 50°50' W 127°32'0 0.0
2014-Sep-09 14:29N 50°50' W 127°32'0 0.0
2014-Sep-09 13:29N 50°50' W 127°32'0 0.0
2014-Sep-09 12:29N 50°50' W 127°32'0 0.0
2014-Sep-09 11:23N 50°50' W 127°32'0 0.0
2014-Sep-09 10:23N 50°50' W 127°32'0 0.0
2014-Sep-09 09:29N 50°50' W 127°32'0 0.0
2014-Sep-09 08:29N 50°50' W 127°32'0 0.0
2014-Sep-09 07:29N 50°50' W 127°32'0 0.0
2014-Sep-09 06:29N 50°50' W 127°32'0 0.0
2014-Sep-09 05:29N 50°50' W 127°32'0 0.0
2014-Sep-09 04:29N 50°50' W 127°32'0 0.0
2014-Sep-09 03:29N 50°50' W 127°32'0 0.0
2014-Sep-09 02:23N 50°50' W 127°32'0 0.0
2014-Sep-09 01:29N 50°50' W 127°32'1 1.1
2014-Sep-09 00:33N 50°50' W 127°33'5 5.5
2014-Sep-08 23:33N 50°56' W 127°34'7 7.3
2014-Sep-08 22:33N 51°03' W 127°37'8 7.5
2014-Sep-08 21:29N 51°09' W 127°45'  
2014-Aug-31 20:03N 52°10' W 128°07'  

Dump ship's entire track history